Time;durP1;ratioP1;P1;durP2;ratioP2;P2;SDS_P1;SDS_P2;PMS_P1;PMS_P2;Temp;Humidity;BMP_temperature;BMP_pressure;BME280_temperature;BME280_humidity;BME280_pressure;Samples;Min_cycle;Max_cycle;Signal;HPM_P1;HPM_P2
2024/03/04 00:01:07;;;;;;;62.92;34.58;;;;;;;7.81;86.13;99270.00;10307566;28;20046;-82
2024/03/04 00:06:11;;;;;;;59.08;33.08;;;;;;;7.84;85.64;99275.06;10299034;28;20131;-82
2024/03/04 00:11:14;;;;;;;57.03;32.25;;;;;;;7.76;85.97;99277.56;10306770;28;20054;-83
2024/03/04 00:16:18;;;;;;;60.83;34.38;;;;;;;7.70;86.42;99289.63;10369871;28;20122;-82
2024/03/04 00:21:22;;;;;;;59.13;34.38;;;;;;;7.66;87.67;99303.41;10359130;28;20050;-81
2024/03/04 00:26:26;;;;;;;59.80;33.53;;;;;;;7.58;87.78;99297.88;10335011;28;20046;-81
2024/03/04 00:31:31;;;;;;;67.95;35.25;;;;;;;7.41;87.57;99304.66;10335982;28;20659;-84
2024/03/04 00:36:34;;;;;;;65.57;35.10;;;;;;;6.73;92.23;99302.25;10331668;28;20702;-84
2024/03/04 00:41:37;;;;;;;61.08;33.95;;;;;;;6.31;92.83;99303.94;10348079;28;20072;-82
2024/03/04 00:46:42;;;;;;;65.88;34.15;;;;;;;6.11;95.68;99302.84;10335036;28;20084;-82
2024/03/04 00:51:45;;;;;;;66.10;35.10;;;;;;;5.67;98.18;99304.53;10327630;28;20121;-82
2024/03/04 00:56:48;;;;;;;66.65;35.95;;;;;;;5.65;99.53;99311.78;10316823;28;20177;-84
2024/03/04 01:01:53;;;;;;;66.85;33.50;;;;;;;6.07;97.39;99320.06;10310513;28;20050;-81
2024/03/04 01:06:57;;;;;;;65.38;35.35;;;;;;;6.29;94.98;99314.72;10327495;28;20057;-83
2024/03/04 01:12:00;;;;;;;67.75;35.55;;;;;;;6.35;93.30;99319.56;10325787;28;20067;-81
2024/03/04 01:17:12;;;;;;;60.67;32.60;;;;;;;6.45;92.07;99326.84;10304538;28;20057;-83
2024/03/04 01:22:17;;;;;;;63.75;35.38;;;;;;;6.49;90.70;99310.44;10322483;28;20047;-81
2024/03/04 01:27:21;;;;;;;64.70;35.28;;;;;;;6.59;89.75;99327.41;10313908;28;20045;-82
2024/03/04 01:32:28;;;;;;;63.03;34.08;;;;;;;6.59;87.58;99329.22;10313222;28;20055;-79
2024/03/04 01:37:31;;;;;;;60.60;33.55;;;;;;;6.54;86.90;99332.25;10305378;28;20054;-83
2024/03/04 01:42:34;;;;;;;61.90;34.42;;;;;;;6.53;88.94;99343.91;10280133;28;20112;-84
2024/03/04 01:47:38;;;;;;;67.72;36.00;;;;;;;6.51;90.65;99334.34;10289653;28;20042;-83
2024/03/04 01:52:42;;;;;;;66.00;37.38;;;;;;;6.49;92.81;99333.59;10312219;28;20584;-81
2024/03/04 01:57:45;;;;;;;73.22;37.83;;;;;;;6.54;94.75;99339.41;10304943;28;20053;-82
2024/03/04 02:02:49;;;;;;;63.28;34.55;;;;;;;6.67;94.53;99342.78;10323888;28;20035;-79
2024/03/04 02:07:52;;;;;;;63.45;34.17;;;;;;;6.71;92.34;99349.56;10348948;28;20105;-82
2024/03/04 02:12:57;;;;;;;66.60;33.40;;;;;;;6.36;94.21;99365.72;10325993;28;20570;-82
2024/03/04 02:18:02;;;;;;;54.83;29.50;;;;;;;5.33;94.46;99365.72;10341110;28;20057;-83
2024/03/04 02:23:09;;;;;;;62.05;33.53;;;;;;;5.13;94.25;99371.69;10317497;28;20056;-82
2024/03/04 02:28:12;;;;;;;56.25;31.00;;;;;;;5.11;93.33;99379.78;10310211;28;20054;-82
2024/03/04 02:33:18;;;;;;;60.72;32.95;;;;;;;5.41;93.24;99392.63;10291619;28;20062;-82
2024/03/04 02:38:23;;;;;;;65.30;34.50;;;;;;;5.62;91.40;99398.16;10306389;28;20050;-82
2024/03/04 02:43:26;;;;;;;61.17;32.88;;;;;;;5.65;90.70;99403.25;10298415;28;20488;-82
2024/03/04 02:48:29;;;;;;;66.78;33.00;;;;;;;5.66;89.85;99420.06;10337331;28;20046;-83
2024/03/04 02:53:34;;;;;;;60.38;32.63;;;;;;;5.60;91.02;99424.06;10301565;28;20050;-82
2024/03/04 02:58:37;;;;;;;60.60;33.72;;;;;;;5.69;90.70;99441.16;10298665;28;20034;-83
2024/03/04 03:03:40;;;;;;;61.40;33.03;;;;;;;5.39;91.03;99453.13;10299712;28;21657;-82
2024/03/04 03:08:45;;;;;;;65.28;34.30;;;;;;;5.39;93.27;99458.47;10308198;28;20417;-82
2024/03/04 03:13:48;;;;;;;61.75;33.00;;;;;;;5.58;92.63;99465.94;10294854;28;20054;-82
2024/03/04 03:18:52;;;;;;;65.97;33.45;;;;;;;5.63;91.20;99458.47;10293364;28;20060;-82
2024/03/04 03:23:57;;;;;;;62.13;33.67;;;;;;;5.79;91.32;99471.47;10295007;28;20066;-82
2024/03/04 03:29:00;;;;;;;64.93;32.92;;;;;;;5.85;90.69;99465.69;10299102;28;20058;-82
2024/03/04 03:34:03;;;;;;;65.15;34.70;;;;;;;5.88;89.71;99469.94;10310026;28;21401;-82
2024/03/04 03:39:09;;;;;;;57.80;30.63;;;;;;;5.78;88.44;99483.09;10321939;28;20046;-81
2024/03/04 03:44:12;;;;;;;60.42;32.03;;;;;;;5.62;87.38;99483.41;10316515;28;20474;-82
2024/03/04 03:49:16;;;;;;;62.13;33.90;;;;;;;5.61;87.55;99486.16;10317257;28;20050;-82
2024/03/04 03:54:21;;;;;;;61.75;33.05;;;;;;;5.60;87.92;99498.66;10300232;28;20054;-82
2024/03/04 03:59:24;;;;;;;67.35;35.10;;;;;;;5.43;90.17;99501.69;10330437;28;20046;-82
2024/03/04 04:04:27;;;;;;;68.65;35.78;;;;;;;5.37;91.54;99510.13;10318705;28;20046;-82
2024/03/04 04:09:31;;;;;;;64.60;34.95;;;;;;;5.44;91.47;99514.91;10349045;28;20046;-82
2024/03/04 04:14:34;;;;;;;62.33;31.75;;;;;;;5.33;89.28;99520.19;10353466;28;20045;-83
2024/03/04 04:19:37;;;;;;;64.78;36.80;;;;;;;5.21;88.61;99529.91;10335497;28;20399;-82
2024/03/04 04:24:43;;;;;;;63.80;33.53;;;;;;;5.15;88.85;99532.16;10317431;28;20104;-82
2024/03/04 04:29:46;;;;;;;58.42;33.13;;;;;;;5.03;88.82;99540.06;10305062;28;20069;-82
2024/03/04 04:34:49;;;;;;;62.92;34.00;;;;;;;4.93;88.82;99557.59;10326967;28;20096;-82
2024/03/04 04:39:53;;;;;;;55.17;30.02;;;;;;;4.58;87.80;99542.31;10353690;28;20093;-83
2024/03/04 04:44:56;;;;;;;56.83;29.90;;;;;;;4.58;87.91;99552.09;10324074;28;20052;-82
2024/03/04 04:50:01;;;;;;;51.60;29.98;;;;;;;4.61;88.06;99558.06;10311097;28;20157;-82
2024/03/04 04:55:06;;;;;;;56.10;29.55;;;;;;;4.72;88.23;99552.00;10343614;28;20536;-82
2024/03/04 05:00:12;;;;;;;66.03;34.53;;;;;;;4.90;88.80;99565.81;10327957;28;20688;-82
2024/03/04 05:05:15;;;;;;;68.90;33.78;;;;;;;4.95;87.80;99576.13;10310245;28;20134;-82
2024/03/04 05:10:21;;;;;;;80.22;36.03;;;;;;;4.93;88.78;99575.38;10330091;28;20056;-82
2024/03/04 05:15:25;;;;;;;74.30;37.58;;;;;;;4.91;89.82;99583.50;10333299;28;20050;-82
2024/03/04 05:20:28;;;;;;;71.50;37.15;;;;;;;4.85;90.11;99591.88;10321058;28;20080;-82
2024/03/04 05:25:34;;;;;;;67.90;35.33;;;;;;;4.96;91.23;99599.97;10325704;28;20041;-82
2024/03/04 05:30:37;;;;;;;69.90;35.78;;;;;;;5.05;90.79;99602.03;10306397;28;20077;-82
2024/03/04 05:35:40;;;;;;;139.10;42.45;;;;;;;5.07;91.10;99607.22;10316097;28;20053;-82
2024/03/04 05:40:46;;;;;;;158.27;43.53;;;;;;;5.05;92.17;99619.81;10300831;28;20050;-82
2024/03/04 05:45:49;;;;;;;122.18;41.03;;;;;;;4.86;93.90;99624.69;10302035;28;20050;-82
2024/03/04 05:50:52;;;;;;;157.45;41.47;;;;;;;4.64;95.17;99627.97;10304165;28;20928;-81
2024/03/04 05:55:56;;;;;;;99.32;45.42;;;;;;;4.53;95.76;99626.91;10300025;28;20558;-82
2024/03/04 06:01:00;;;;;;;89.13;41.92;;;;;;;4.54;95.62;99641.88;10296968;28;20726;-81
2024/03/04 06:06:03;;;;;;;75.72;38.42;;;;;;;4.75;96.54;99647.56;10301135;28;20053;-82
2024/03/04 06:11:08;;;;;;;82.93;38.55;;;;;;;5.05;96.26;99659.75;10319692;28;20058;-82
2024/03/04 06:16:11;;;;;;;93.00;40.20;;;;;;;5.32;96.23;99662.28;10304791;28;21031;-82
2024/03/04 06:21:15;;;;;;;82.38;40.55;;;;;;;5.34;96.43;99668.34;10299811;28;20057;-82
2024/03/04 06:26:19;;;;;;;82.05;38.53;;;;;;;5.40;96.35;99675.03;10297979;28;20054;-82
2024/03/04 06:31:22;;;;;;;90.70;40.28;;;;;;;5.30;98.12;99682.00;10298020;28;20414;-83
2024/03/04 06:36:26;;;;;;;88.82;41.25;;;;;;;5.55;99.11;99694.44;10295444;28;20098;-82
2024/03/04 06:41:30;;;;;;;98.75;43.88;;;;;;;5.66;99.58;99699.84;10296985;28;20050;-82
2024/03/04 06:46:33;;;;;;;96.85;43.25;;;;;;;5.88;99.42;99707.16;10307842;28;20050;-82
2024/03/04 06:51:36;;;;;;;99.70;43.22;;;;;;;5.99;98.31;99715.22;10297124;28;20054;-82
2024/03/04 06:56:40;;;;;;;112.85;47.25;;;;;;;5.84;100.00;99708.31;10296677;28;20053;-83
2024/03/04 07:01:44;;;;;;;103.45;43.15;;;;;;;5.58;100.00;99731.50;10321216;28;21618;-82
2024/03/04 07:06:47;;;;;;;96.90;44.08;;;;;;;5.50;100.00;99735.56;10331037;28;20069;-82
2024/03/04 07:11:51;;;;;;;91.80;43.33;;;;;;;5.23;100.00;99737.47;10358182;28;20948;-81
2024/03/04 07:16:54;;;;;;;116.78;42.95;;;;;;;5.02;100.00;99751.31;10309923;28;20049;-81
2024/03/04 07:21:58;;;;;;;94.78;41.47;;;;;;;5.17;100.00;99748.56;10324251;28;20041;-81
2024/03/04 07:27:02;;;;;;;102.38;42.17;;;;;;;4.81;100.00;99750.06;10323620;28;20061;-80
2024/03/04 07:32:06;;;;;;;152.45;42.40;;;;;;;4.87;100.00;99759.44;10333147;28;20057;-80
2024/03/04 07:37:09;;;;;;;106.90;36.60;;;;;;;4.85;100.00;99762.19;10333460;28;20057;-80
2024/03/04 07:42:14;;;;;;;135.60;47.20;;;;;;;5.17;100.00;99764.53;10293444;28;20134;-80
2024/03/04 07:47:20;;;;;;;148.20;47.85;;;;;;;4.94;100.00;99766.91;10316650;28;20065;-80
2024/03/04 07:52:23;;;;;;;121.68;44.05;;;;;;;5.37;100.00;99776.47;10332730;28;20050;-81
2024/03/04 07:57:27;;;;;;;139.90;48.17;;;;;;;5.43;100.00;99776.03;10304443;28;20152;-81
2024/03/04 08:02:30;;;;;;;150.77;49.22;;;;;;;5.40;100.00;99792.25;10317010;28;20057;-81
2024/03/04 08:07:34;;;;;;;147.35;47.78;;;;;;;5.66;100.00;99795.78;10311198;28;20421;-81
2024/03/04 08:12:41;;;;;;;128.48;49.05;;;;;;;5.82;100.00;99809.72;10353020;28;20080;-80
2024/03/04 08:17:44;;;;;;;135.60;47.97;;;;;;;6.03;100.00;99818.00;10309245;28;20046;-81
2024/03/04 08:22:57;;;;;;;150.85;48.30;;;;;;;5.79;100.00;99815.28;10315397;28;20046;-80
2024/03/04 08:28:03;;;;;;;136.57;47.42;;;;;;;5.90;100.00;99818.03;10316860;28;20402;-81
2024/03/04 08:33:15;;;;;;;132.63;46.90;;;;;;;5.85;100.00;99822.84;10316177;28;20394;-78
2024/03/04 08:38:18;;;;;;;106.55;45.45;;;;;;;5.98;100.00;99833.50;10304136;28;20045;-79
2024/03/04 08:43:22;;;;;;;136.43;45.88;;;;;;;6.14;100.00;99844.78;10310873;28;20043;-80
2024/03/04 08:48:26;;;;;;;115.20;44.83;;;;;;;6.30;100.00;99841.84;10287989;28;20058;-80
2024/03/04 08:53:29;;;;;;;119.82;42.15;;;;;;;5.99;100.00;99843.19;10318544;28;20440;-81
2024/03/04 08:58:37;;;;;;;108.68;45.60;;;;;;;6.17;100.00;99849.00;10346093;28;20095;-80
2024/03/04 09:03:40;;;;;;;102.53;38.83;;;;;;;6.25;100.00;99852.00;10340875;28;21778;-81
2024/03/04 09:08:43;;;;;;;105.68;42.28;;;;;;;5.83;100.00;99850.56;10312027;28;20056;-78
2024/03/04 09:13:47;;;;;;;97.50;44.53;;;;;;;6.10;100.00;99842.44;10309385;28;20058;-79
2024/03/04 09:18:51;;;;;;;102.78;42.42;;;;;;;6.67;100.00;99841.00;10323793;28;20050;-81
2024/03/04 09:23:54;;;;;;;96.47;41.67;;;;;;;6.89;100.00;99848.31;10329112;28;20086;-80
2024/03/04 09:28:58;;;;;;;93.05;41.75;;;;;;;6.89;100.00;99856.34;10345921;28;21237;-79
2024/03/04 09:34:02;;;;;;;92.80;40.95;;;;;;;7.14;100.00;99847.34;10346955;28;20155;-79
2024/03/04 09:39:05;;;;;;;101.03;41.45;;;;;;;7.21;100.00;99852.13;10321215;28;20053;-79
2024/03/04 09:44:10;;;;;;;92.00;41.55;;;;;;;6.87;100.00;99859.09;10312065;28;20047;-80
2024/03/04 09:49:16;;;;;;;86.28;39.30;;;;;;;6.72;100.00;99863.72;10312632;28;20058;-81
2024/03/04 09:54:21;;;;;;;77.65;36.80;;;;;;;6.30;100.00;99870.34;10307622;28;20120;-80
2024/03/04 09:59:26;;;;;;;99.32;40.42;;;;;;;6.25;100.00;99865.31;10336982;28;20129;-81
2024/03/04 10:04:30;;;;;;;94.65;39.40;;;;;;;6.58;100.00;99870.06;10321143;28;20105;-81
2024/03/04 10:09:35;;;;;;;88.05;37.22;;;;;;;6.44;100.00;99872.88;10315853;28;20042;-80
2024/03/04 10:15:06;;;;;;;83.60;37.97;;;;;;;6.20;100.00;99870.16;10316097;28;20054;-80
2024/03/04 10:20:11;;;;;;;89.35;40.45;;;;;;;6.38;100.00;99887.50;10315975;28;20061;-80
2024/03/04 10:25:15;;;;;;;85.03;39.85;;;;;;;6.59;100.00;99879.78;10299495;28;20061;-79
2024/03/04 10:30:22;;;;;;;79.63;36.65;;;;;;;6.97;100.00;99878.81;10328822;28;20050;-78
2024/03/04 10:35:28;;;;;;;74.22;36.95;;;;;;;7.64;100.00;99875.53;10297815;28;20054;-80
2024/03/04 10:40:33;;;;;;;77.43;36.00;;;;;;;8.02;98.81;99871.72;10312398;28;20252;-80
2024/03/04 10:45:40;;;;;;;69.07;35.78;;;;;;;7.55;96.13;99881.59;10326994;28;20038;-78
2024/03/04 10:50:43;;;;;;;67.55;36.17;;;;;;;7.99;96.15;99879.97;10316884;28;20178;-78
2024/03/04 10:55:49;;;;;;;70.43;34.80;;;;;;;8.05;94.18;99884.84;10311175;28;20050;-78
2024/03/04 11:00:54;;;;;;;72.32;33.80;;;;;;;7.56;95.52;99894.00;10319772;28;20068;-78
2024/03/04 11:06:00;;;;;;;73.15;35.53;;;;;;;7.23;100.00;99892.91;10315566;28;20529;-79
2024/03/04 11:11:08;;;;;;;75.50;35.17;;;;;;;7.24;100.00;99881.25;10312636;28;20626;-79
2024/03/04 11:16:20;;;;;;;77.00;36.67;;;;;;;7.10;100.00;99883.25;10301275;28;20100;-80
2024/03/04 11:21:25;;;;;;;;;;;;;;;7.44;100.00;99885.09;10329469;28;20073;-80
2024/03/04 11:26:30;;;;;;;83.47;37.63;;;;;;;7.34;100.00;99883.22;10319069;28;19925;-79
2024/03/04 11:31:35;;;;;;;82.50;38.25;;;;;;;7.65;100.00;99882.63;10332699;28;20052;-79
2024/03/04 11:36:39;;;;;;;82.72;37.67;;;;;;;7.63;100.00;99884.53;10327155;28;20049;-79
2024/03/04 11:41:45;;;;;;;89.45;40.78;;;;;;;7.73;100.00;99884.66;10319153;28;20695;-80
2024/03/04 11:46:50;;;;;;;87.55;39.50;;;;;;;7.80;100.00;99877.88;10332408;28;20048;-79
2024/03/04 11:52:02;;;;;;;86.03;38.97;;;;;;;8.23;96.94;99879.88;10308776;28;20405;-78
2024/03/04 11:57:07;;;;;;;90.97;39.83;;;;;;;8.26;96.62;99881.47;10291429;28;20055;-79
2024/03/04 12:02:12;;;;;;;83.50;38.38;;;;;;;8.42;95.94;99894.44;10293558;28;20054;-78
2024/03/04 12:07:16;;;;;;;83.78;37.33;;;;;;;7.62;100.00;99904.19;10273056;28;20058;-79
2024/03/04 12:12:21;;;;;;;77.90;36.50;;;;;;;7.74;100.00;99907.78;10328283;28;20050;-81
2024/03/04 12:17:27;;;;;;;85.22;38.38;;;;;;;7.72;100.00;99910.56;10333681;28;20052;-81
2024/03/04 12:22:30;;;;;;;88.30;38.60;;;;;;;8.31;99.16;99900.66;10334669;28;20776;-81
2024/03/04 12:27:39;;;;;;;85.22;40.33;;;;;;;8.51;98.38;99913.34;10294215;28;20057;-79
2024/03/04 12:32:48;;;;;;;85.72;39.40;;;;;;;8.83;94.53;99910.78;10303702;28;20128;-80
2024/03/04 12:37:53;;;;;;;87.15;38.95;;;;;;;8.48;96.65;99913.59;10297072;28;20046;-80
2024/03/04 12:42:58;;;;;;;83.80;37.30;;;;;;;8.44;96.18;99920.13;10307245;28;20046;-80
2024/03/04 12:48:03;;;;;;;83.47;39.20;;;;;;;8.51;96.86;99925.91;10345999;28;20065;-81
2024/03/04 12:53:08;;;;;;;86.68;40.20;;;;;;;8.21;100.00;99923.78;10332900;28;20050;-79
2024/03/04 12:58:11;;;;;;;90.28;37.38;;;;;;;8.25;100.00;99925.22;10319278;28;20425;-80
2024/03/04 13:03:16;;;;;;;88.72;37.38;;;;;;;7.94;100.00;99932.97;10307213;28;20047;-81
2024/03/04 13:08:20;;;;;;;81.80;37.40;;;;;;;8.13;100.00;99927.91;10325939;28;20103;-82
2024/03/04 13:13:23;;;;;;;87.00;36.45;;;;;;;8.12;100.00;99936.06;10332139;28;20104;-81
2024/03/04 13:18:27;;;;;;;82.47;35.08;;;;;;;8.31;100.00;99935.44;10293099;28;20778;-82
2024/03/04 13:23:30;;;;;;;78.93;32.08;;;;;;;8.14;100.00;99937.63;10339617;28;20084;-81
2024/03/04 13:28:34;;;;;;;78.75;35.88;;;;;;;8.18;100.00;99930.22;10309161;28;20578;-80
2024/03/04 13:33:38;;;;;;;75.07;32.08;;;;;;;8.28;100.00;99927.66;10288857;28;20591;-80
2024/03/04 13:38:41;;;;;;;80.53;34.17;;;;;;;8.27;100.00;99934.00;10302190;28;20049;-80
2024/03/04 13:43:44;;;;;;;87.95;35.83;;;;;;;8.31;100.00;99940.81;10310079;28;20289;-79
2024/03/04 13:48:49;;;;;;;79.45;35.33;;;;;;;8.12;100.00;99936.06;10283760;28;20050;-79
2024/03/04 13:53:52;;;;;;;84.07;35.03;;;;;;;8.35;100.00;99936.94;10327659;28;20045;-81
2024/03/04 13:58:55;;;;;;;82.60;35.25;;;;;;;8.04;100.00;99942.00;10357222;28;20051;-81
2024/03/04 14:04:00;;;;;;;87.80;37.08;;;;;;;8.23;100.00;99940.56;10337558;28;20065;-80
2024/03/04 14:09:03;;;;;;;93.72;38.38;;;;;;;8.14;100.00;99937.63;10313272;28;20065;-83
2024/03/04 14:14:06;;;;;;;87.70;36.13;;;;;;;8.15;100.00;99936.66;10321112;28;20050;-80
2024/03/04 14:19:11;;;;;;;72.05;30.75;;;;;;;8.07;100.00;99940.91;10322285;28;20050;-81
2024/03/04 14:24:14;;;;;;;86.40;34.20;;;;;;;8.02;100.00;99940.41;10342494;28;20110;-80
2024/03/04 14:29:17;;;;;;;86.60;34.92;;;;;;;7.70;100.00;99936.56;10321992;28;20058;-82
2024/03/04 14:34:22;;;;;;;83.43;34.65;;;;;;;7.84;100.00;99940.84;10334931;28;20046;-80
2024/03/04 14:39:25;;;;;;;78.13;31.80;;;;;;;7.83;100.00;99957.88;10335945;28;20057;-81
2024/03/04 14:44:28;;;;;;;80.05;33.72;;;;;;;8.14;100.00;99934.94;10337688;28;20094;-82
2024/03/04 14:49:33;;;;;;;76.07;32.58;;;;;;;8.10;100.00;99944.19;10321887;28;20129;-80
2024/03/04 14:54:36;;;;;;;81.25;33.63;;;;;;;8.31;100.00;99939.00;10306964;28;20513;-82
2024/03/04 14:59:39;;;;;;;75.25;31.50;;;;;;;8.19;100.00;99947.97;10305189;28;20133;-80
2024/03/04 15:04:44;;;;;;;81.57;34.08;;;;;;;8.33;100.00;99945.06;10326490;28;20045;-81
2024/03/04 15:09:47;;;;;;;81.40;33.83;;;;;;;8.30;100.00;99952.50;10331654;28;20515;-78
2024/03/04 15:14:50;;;;;;;77.50;32.00;;;;;;;7.95;100.00;99961.41;10313244;28;20134;-81
2024/03/04 15:19:55;;;;;;;80.30;33.72;;;;;;;8.10;100.00;99952.22;10336080;28;20050;-80
2024/03/04 15:24:58;;;;;;;79.07;31.92;;;;;;;7.97;100.00;99955.97;10316190;28;20089;-80
2024/03/04 15:30:06;;;;;;;79.75;32.22;;;;;;;8.14;100.00;99955.50;10319141;28;20050;-80
2024/03/04 15:35:13;;;;;;;81.30;32.55;;;;;;;7.79;100.00;99958.22;10339471;28;21341;-81
2024/03/04 15:40:16;;;;;;;84.82;33.35;;;;;;;7.98;100.00;99955.84;10331831;28;20056;-80
2024/03/04 15:45:19;;;;;;;89.47;33.53;;;;;;;7.78;100.00;99968.06;10311648;28;20062;-79
2024/03/04 15:50:24;;;;;;;84.32;33.97;;;;;;;8.09;100.00;99963.91;10297287;28;20125;-81
2024/03/04 15:55:28;;;;;;;84.38;35.42;;;;;;;8.08;100.00;99962.19;10274778;28;20429;-81
2024/03/04 16:00:31;;;;;;;89.28;32.88;;;;;;;8.13;100.00;99961.84;10278123;28;20057;-81
2024/03/04 16:05:35;;;;;;;77.68;33.00;;;;;;;8.17;100.00;99966.84;10280172;28;20046;-79
2024/03/04 16:10:38;;;;;;;86.15;34.40;;;;;;;8.27;100.00;99966.97;10305446;28;20041;-79
2024/03/04 16:15:43;;;;;;;78.50;31.38;;;;;;;7.85;100.00;99971.13;10320290;28;20046;-80
2024/03/04 16:20:56;;;;;;;81.45;32.92;;;;;;;8.12;100.00;99966.34;10319873;28;20046;-81
2024/03/04 16:26:00;;;;;;;80.35;32.92;;;;;;;8.09;100.00;99963.91;10313657;28;20043;-80
2024/03/04 16:31:06;;;;;;;86.93;32.20;;;;;;;8.04;100.00;99973.25;10314179;28;20064;-79
2024/03/04 16:36:14;;;;;;;81.90;32.30;;;;;;;7.89;100.00;99970.75;10320345;28;20353;-78
2024/03/04 16:41:21;;;;;;;85.97;31.75;;;;;;;7.78;100.00;99977.91;10321466;28;20082;-80
2024/03/04 16:46:24;;;;;;;89.00;33.67;;;;;;;7.76;100.00;99988.69;10342050;28;20050;-79
2024/03/04 16:51:28;;;;;;;91.82;33.17;;;;;;;7.92;100.00;99989.25;10331500;28;20062;-81
2024/03/04 16:56:32;;;;;;;93.28;33.75;;;;;;;7.62;100.00;99997.75;10313795;28;20050;-81
2024/03/04 17:01:35;;;;;;;96.05;35.72;;;;;;;7.81;100.00;99994.56;10312635;28;20056;-80
2024/03/04 17:06:46;;;;;;;98.85;37.60;;;;;;;7.95;100.00;99986.38;10314628;28;20505;-80
2024/03/04 17:11:49;;;;;;;91.80;34.72;;;;;;;8.06;100.00;99988.19;10318244;28;20089;-78
2024/03/04 17:16:54;;;;;;;98.32;36.92;;;;;;;7.86;100.00;99994.22;10341475;28;20046;-80
2024/03/04 17:21:59;;;;;;;86.65;34.03;;;;;;;7.86;100.00;99997.75;10312218;28;20054;-79
2024/03/04 17:27:02;;;;;;;95.03;36.50;;;;;;;7.88;100.00;100003.84;10343208;28;20050;-79
2024/03/04 17:32:07;;;;;;;92.03;35.88;;;;;;;7.98;100.00;100006.69;10316510;28;20077;-79
2024/03/04 17:37:11;;;;;;;101.20;36.88;;;;;;;7.96;100.00;100013.97;10321279;28;20047;-80
2024/03/04 17:42:14;;;;;;;107.32;44.55;;;;;;;8.05;100.00;100013.25;10314829;28;20049;-79
2024/03/04 17:47:17;;;;;;;115.28;41.88;;;;;;;8.06;100.00;100014.94;10359223;28;20061;-78
2024/03/04 17:52:22;;;;;;;106.53;40.22;;;;;;;8.09;100.00;100025.44;10306390;28;20046;-81
2024/03/04 17:57:27;;;;;;;98.72;38.33;;;;;;;8.14;100.00;100025.91;10355942;28;20062;-81
2024/03/04 18:02:35;;;;;;;107.70;40.50;;;;;;;8.16;100.00;100034.69;10340796;28;20053;-82
2024/03/04 18:07:40;;;;;;;105.82;41.28;;;;;;;8.17;100.00;100027.50;10351247;28;20043;-81
2024/03/04 18:12:44;;;;;;;104.43;38.67;;;;;;;8.15;100.00;100027.63;10321432;28;20058;-82
2024/03/04 18:17:52;;;;;;;104.47;38.15;;;;;;;7.97;100.00;100033.53;10360368;28;20515;-82
2024/03/04 18:22:59;;;;;;;98.55;36.67;;;;;;;7.98;100.00;100044.13;10348351;28;20058;-81
2024/03/04 18:28:04;;;;;;;108.18;38.00;;;;;;;7.93;100.00;100038.25;10340321;28;20041;-82
2024/03/04 18:33:09;;;;;;;95.82;36.83;;;;;;;7.87;100.00;100028.00;10323038;28;20076;-79
2024/03/04 18:38:14;;;;;;;98.78;35.50;;;;;;;7.83;100.00;100031.91;10334885;28;21003;-82
2024/03/04 18:43:18;;;;;;;100.35;36.08;;;;;;;7.84;100.00;100039.78;10345592;28;20065;-82
2024/03/04 18:48:21;;;;;;;104.68;36.42;;;;;;;7.84;100.00;100042.47;10343713;28;20061;-80
2024/03/04 18:53:26;;;;;;;128.20;50.05;;;;;;;7.87;100.00;100046.72;10359172;28;20050;-80
2024/03/04 18:58:32;;;;;;;115.28;46.70;;;;;;;8.00;100.00;100052.00;10346578;28;20054;-81
2024/03/04 19:03:38;;;;;;;111.40;45.25;;;;;;;8.04;100.00;100050.84;10356498;28;20106;-79
2024/03/04 19:08:49;;;;;;;104.43;39.00;;;;;;;7.77;100.00;100048.41;10330540;28;20039;-79
2024/03/04 19:13:55;;;;;;;100.75;38.92;;;;;;;7.95;100.00;100055.03;10365827;28;20129;-83
2024/03/04 19:18:59;;;;;;;105.65;39.00;;;;;;;7.98;100.00;100056.63;10351378;28;20041;-82
2024/03/04 19:24:05;;;;;;;103.22;39.25;;;;;;;7.87;100.00;100063.66;10360038;28;20096;-82
2024/03/04 19:29:09;;;;;;;100.32;36.85;;;;;;;7.80;100.00;100053.53;10371242;28;20158;-78
2024/03/04 19:34:14;;;;;;;99.60;36.58;;;;;;;7.71;100.00;100058.59;10340546;28;20046;-79
2024/03/04 19:39:22;;;;;;;97.20;38.28;;;;;;;7.82;100.00;100062.28;10341110;28;20050;-81
2024/03/04 19:44:33;;;;;;;94.75;37.53;;;;;;;7.93;100.00;100060.50;10372086;28;20042;-84
2024/03/04 19:50:07;;;;;;;93.43;38.92;;;;;;;8.00;100.00;100062.72;10348490;28;20042;-84
2024/03/04 19:55:14;;;;;;;93.75;37.38;;;;;;;8.05;100.00;100079.28;10366219;28;21276;-82
2024/03/04 20:00:19;;;;;;;94.43;37.25;;;;;;;8.08;100.00;100076.38;10350135;28;20050;-82
2024/03/04 20:05:31;;;;;;;93.55;38.45;;;;;;;8.10;100.00;100079.78;10330328;28;20050;-82
2024/03/04 20:10:40;;;;;;;94.05;36.92;;;;;;;8.13;100.00;100088.41;10357057;28;20053;-79
2024/03/04 20:15:44;;;;;;;86.93;37.13;;;;;;;8.15;100.00;100089.16;10327765;28;20106;-80
2024/03/04 20:21:00;;;;;;;93.47;38.35;;;;;;;8.15;100.00;100085.66;10365330;28;20058;-81
2024/03/04 20:26:06;;;;;;;98.90;37.75;;;;;;;8.16;100.00;100090.00;10354932;28;20641;-80
2024/03/04 20:31:10;;;;;;;97.30;39.60;;;;;;;8.16;100.00;100087.34;10351186;28;20060;-83
2024/03/04 20:36:18;;;;;;;102.03;39.10;;;;;;;8.15;100.00;100085.66;10372271;28;20044;-81
2024/03/04 20:41:23;;;;;;;96.40;38.78;;;;;;;8.12;100.00;100092.06;10346646;28;20054;-78
2024/03/04 20:46:27;;;;;;;102.85;39.42;;;;;;;8.05;100.00;100093.50;10327534;28;20607;-80
2024/03/04 20:51:35;;;;;;;117.45;41.65;;;;;;;8.00;100.00;100100.16;10346500;28;20054;-81
2024/03/04 20:56:42;;;;;;;93.63;39.72;;;;;;;7.95;100.00;100095.16;10352237;28;21203;-83
2024/03/04 21:01:47;;;;;;;102.10;40.28;;;;;;;8.04;100.00;100104.34;10310352;28;20135;-80
2024/03/04 21:06:53;;;;;;;94.93;36.33;;;;;;;7.88;100.00;100092.09;10333131;28;20081;-80
2024/03/04 21:12:10;;;;;;;96.38;36.60;;;;;;;7.90;100.00;100095.50;10329597;28;21147;-81
2024/03/04 21:17:20;;;;;;;95.30;38.60;;;;;;;7.98;100.00;100102.09;10365280;28;20045;-79
2024/03/04 21:22:26;;;;;;;100.75;39.65;;;;;;;7.94;100.00;100106.81;10356009;28;20055;-79
2024/03/04 21:27:36;;;;;;;106.30;40.40;;;;;;;7.90;100.00;100100.00;10341258;28;20046;-80
2024/03/04 21:32:43;;;;;;;93.93;36.70;;;;;;;7.92;100.00;100095.38;10318882;28;20050;-80
2024/03/04 21:37:56;;;;;;;99.93;37.65;;;;;;;8.01;100.00;100102.72;10333652;28;20674;-80
2024/03/04 21:43:06;;;;;;;93.40;36.88;;;;;;;8.04;100.00;100101.66;10352884;28;21043;-78
2024/03/04 21:48:09;;;;;;;99.50;39.28;;;;;;;7.80;100.00;100101.66;10331864;28;20065;-80
2024/03/04 21:53:13;;;;;;;101.03;39.30;;;;;;;7.92;100.00;100093.56;10331485;28;20052;-79
2024/03/04 21:58:18;;;;;;;111.55;40.03;;;;;;;7.91;100.00;100094.53;10332688;28;20312;-80
2024/03/04 22:03:21;;;;;;;108.40;39.90;;;;;;;7.98;100.00;100094.06;10335850;28;20155;-78
2024/03/04 22:08:24;;;;;;;111.13;41.65;;;;;;;8.02;100.00;100092.88;10333203;28;20057;-79
2024/03/04 22:13:28;;;;;;;114.03;39.97;;;;;;;8.03;100.00;100095.44;10319764;28;21311;-80
2024/03/04 22:18:31;;;;;;;107.82;40.35;;;;;;;7.93;100.00;100087.25;10308473;28;20045;-80
2024/03/04 22:23:35;;;;;;;105.00;40.78;;;;;;;7.88;100.00;100100.09;10302578;28;20047;-79
2024/03/04 22:28:39;;;;;;;112.65;43.22;;;;;;;7.76;100.00;100094.81;10294983;28;20054;-79
2024/03/04 22:33:42;;;;;;;106.05;42.13;;;;;;;7.90;100.00;100097.34;10283948;28;20089;-81
2024/03/04 22:38:45;;;;;;;114.63;40.90;;;;;;;7.81;100.00;100093.50;10283037;28;20066;-79
2024/03/04 22:43:49;;;;;;;104.80;40.78;;;;;;;7.83;100.00;100104.94;10296683;28;20046;-81
2024/03/04 22:48:53;;;;;;;109.07;39.55;;;;;;;7.79;100.00;100106.16;10301109;28;20050;-80
2024/03/04 22:53:56;;;;;;;102.30;39.38;;;;;;;7.76;100.00;100108.19;10295777;28;20402;-81
2024/03/04 22:59:00;;;;;;;104.85;39.70;;;;;;;7.80;100.00;100118.53;10296959;28;20050;-80
2024/03/04 23:04:04;;;;;;;102.72;38.25;;;;;;;7.85;100.00;100119.06;10303316;28;20060;-78